Time;durP1;ratioP1;P1;durP2;ratioP2;P2;SDS_P1;SDS_P2;PMS_P1;PMS_P2;Temp;Humidity;BMP_temperature;BMP_pressure;BME280_temperature;BME280_humidity;BME280_pressure;Samples;Min_cycle;Max_cycle;Signal;HPM_P1;HPM_P2
2024/02/20 00:02:15;;;;;;;;;;;;;;;;;;6324605;28;19961;-78
2024/02/20 00:05:15;;;;;;;;;;;;;;;;;;6323556;28;19961;-78
2024/02/20 00:08:16;;;;;;;;;;;;;;;;;;6320675;28;19912;-78
2024/02/20 00:11:16;;;;;;;;;;;;;;;;;;6324766;28;19908;-78
2024/02/20 00:14:16;;;;;;;;;;;;;;;;;;6318010;28;19920;-78
2024/02/20 00:17:16;;;;;;;;;;;;;;;;;;6298991;28;19909;-78
2024/02/20 00:20:16;;;;;;;;;;;;;;;;;;6298990;28;19911;-78
2024/02/20 00:23:17;;;;;;;;;;;;;;;;;;6302798;28;19908;-78
2024/02/20 00:26:18;;;;;;;;;;;;;;;;;;6320784;28;19955;-78
2024/02/20 00:29:18;;;;;;;;;;;;;;;;;;6313766;28;19968;-78
2024/02/20 00:32:19;;;;;;;;;;;;;;;;;;6323598;28;19911;-78
2024/02/20 00:35:19;;;;;;;;;;;;;;;;;;6298987;28;20061;-78
2024/02/20 00:38:20;;;;;;;;;;;;;;;;;;6301663;28;20019;-78
2024/02/20 00:41:20;;;;;;;;;;;;;;;;;;6323021;28;19998;-78
2024/02/20 00:44:20;;;;;;;;;;;;;;;;;;6320849;28;19904;-79
2024/02/20 00:47:20;;;;;;;;;;;;;;;;;;6298595;28;19912;-78
2024/02/20 00:50:21;;;;;;;;;;;;;;;;;;6297951;28;19904;-78
2024/02/20 00:53:22;;;;;;;;;;;;;;;;;;6320851;28;19908;-78
2024/02/20 00:56:23;;;;;;;;;;;;;;;;;;6321807;28;19922;-78
2024/02/20 00:59:23;;;;;;;;;;;;;;;;;;6320056;28;20061;-79
2024/02/20 01:02:23;;;;;;;;;;;;;;;;;;6321284;28;19908;-84
2024/02/20 01:05:23;;;;;;;;;;;;;;;;;;6323292;28;19916;-83
2024/02/20 01:08:24;;;;;;;;;;;;;;;;;;6323399;28;20316;-83
2024/02/20 01:11:24;;;;;;;;;;;;;;;;;;6314840;28;20007;-83
2024/02/20 01:14:24;;;;;;;;;;;;;;;;;;6317311;28;20002;-83
2024/02/20 01:17:24;;;;;;;;;;;;;;;;;;6323225;28;20044;-84
2024/02/20 01:20:24;;;;;;;;;;;;;;;;;;6323195;28;19987;-83
2024/02/20 01:23:24;;;;;;;;;;;;;;;;;;6323684;28;19942;-83
2024/02/20 01:26:24;;;;;;;;;;;;;;;;;;6323915;28;20379;-83
2024/02/20 01:29:24;;;;;;;;;;;;;;;;;;6321898;28;19918;-83
2024/02/20 01:32:25;;;;;;;;;;;;;;;;;;6314384;28;19911;-83
2024/02/20 01:35:25;;;;;;;;;;;;;;;;;;6304685;28;19977;-83
2024/02/20 01:38:25;;;;;;;;;;;;;;;;;;6324006;28;19904;-84
2024/02/20 01:41:27;;;;;;;;;;;;;;;;;;6314395;28;19997;-84
2024/02/20 01:44:27;;;;;;;;;;;;;;;;;;6305127;28;19949;-84
2024/02/20 01:47:27;;;;;;;;;;;;;;;;;;6323754;28;19916;-84
2024/02/20 01:50:28;;;;;;;;;;;;;;;;;;6321168;28;20309;-79
2024/02/20 01:53:28;;;;;;;;;;;;;;;;;;6328033;28;19908;-83
2024/02/20 01:56:28;;;;;;;;;;;;;;;;;;6324887;28;19915;-82
2024/02/20 01:59:28;;;;;;;;;;;;;;;;;;6314736;28;19908;-83
2024/02/20 02:02:28;;;;;;;;;;;;;;;;;;6326894;28;19908;-84
2024/02/20 02:05:28;;;;;;;;;;;;;;;;;;6314435;28;20357;-82
2024/02/20 02:08:28;;;;;;;;;;;;;;;;;;6302625;28;20341;-83
2024/02/20 02:11:29;;;;;;;;;;;;;;;;;;6304950;28;20440;-77
2024/02/20 02:14:29;;;;;;;;;;;;;;;;;;6311757;28;19955;-78
2024/02/20 02:17:29;;;;;;;;;;;;;;;;;;6300619;28;19908;-78
2024/02/20 02:20:29;;;;;;;;;;;;;;;;;;6325256;28;20363;-78
2024/02/20 02:23:29;;;;;;;;;;;;;;;;;;6325943;28;19943;-77
2024/02/20 02:26:29;;;;;;;;;;;;;;;;;;6326180;28;20364;-77
2024/02/20 02:29:31;;;;;;;;;;;;;;;;;;6325258;28;20324;-77
2024/02/20 02:32:31;;;;;;;;;;;;;;;;;;6326307;28;19907;-77
2024/02/20 02:35:31;;;;;;;;;;;;;;;;;;6324228;28;19942;-78
2024/02/20 02:38:31;;;;;;;;;;;;;;;;;;6326514;28;19991;-77
2024/02/20 02:41:33;;;;;;;;;;;;;;;;;;6325318;28;19904;-77
2024/02/20 02:44:33;;;;;;;;;;;;;;;;;;6325801;28;19919;-77
2024/02/20 02:47:33;;;;;;;;;;;;;;;;;;6325665;28;19912;-77
2024/02/20 02:50:33;;;;;;;;;;;;;;;;;;6325360;28;19912;-77
2024/02/20 02:53:33;;;;;;;;;;;;;;;;;;6324748;28;19919;-77
2024/02/20 02:56:34;;;;;;;;;;;;;;;;;;6325225;28;19935;-77
2024/02/20 02:59:34;;;;;;;;;;;;;;;;;;6324171;28;20025;-78
2024/02/20 03:02:34;;;;;;;;;;;;;;;;;;6314567;28;20285;-78
2024/02/20 03:05:37;;;;;;;;;;;;;;;;;;6307313;28;20338;-77
2024/02/20 03:08:37;;;;;;;;;;;;;;;;;;6325898;28;19912;-77
2024/02/20 03:11:37;;;;;;;;;;;;;;;;;;6324882;28;20314;-77
2024/02/20 03:14:38;;;;;;;;;;;;;;;;;;6320839;28;19916;-77
2024/02/20 03:17:43;;;;;;;;;;;;;;;;;;6324934;28;20311;-78
2024/02/20 03:20:43;;;;;;;;;;;;;;;;;;6325133;28;19910;-80
2024/02/20 03:23:43;;;;;;;;;;;;;;;;;;6324307;28;19908;-80
2024/02/20 03:26:44;;;;;;;;;;;;;;;;;;6323915;28;19936;-81
2024/02/20 03:29:45;;;;;;;;;;;;;;;;;;6321991;28;19908;-78
2024/02/20 03:32:45;;;;;;;;;;;;;;;;;;6299905;28;20397;-81
2024/02/20 03:35:45;;;;;;;;;;;;;;;;;;6313144;28;19911;-81
2024/02/20 03:38:46;;;;;;;;;;;;;;;;;;6320440;28;20325;-81
2024/02/20 03:41:46;;;;;;;;;;;;;;;;;;6325232;28;19938;-81
2024/02/20 03:44:46;;;;;;;;;;;;;;;;;;6321368;28;19919;-81
2024/02/20 03:47:47;;;;;;;;;;;;;;;;;;6324221;28;19912;-81
2024/02/20 03:50:47;;;;;;;;;;;;;;;;;;6309875;28;19912;-81
2024/02/20 03:53:47;;;;;;;;;;;;;;;;;;6325158;28;20377;-82
2024/02/20 03:56:47;;;;;;;;;;;;;;;;;;6323396;28;19948;-81
2024/02/20 03:59:47;;;;;;;;;;;;;;;;;;6300381;28;19931;-81
2024/02/20 04:02:47;;;;;;;;;;;;;;;;;;6326550;28;20268;-81
2024/02/20 04:05:47;;;;;;;;;;;;;;;;;;6323454;28;20494;-81
2024/02/20 04:08:48;;;;;;;;;;;;;;;;;;6323347;28;19919;-81
2024/02/20 04:11:48;;;;;;;;;;;;;;;;;;6322268;28;19908;-81
2024/02/20 04:14:48;;;;;;;;;;;;;;;;;;6309518;28;19945;-82
2024/02/20 04:17:48;;;;;;;;;;;;;;;;;;6298668;28;19911;-82
2024/02/20 04:20:48;;;;;;;;;;;;;;;;;;6298221;28;19966;-81
2024/02/20 04:23:48;;;;;;;;;;;;;;;;;;6299148;28;19904;-82
2024/02/20 04:26:49;;;;;;;;;;;;;;;;;;6302271;28;19923;-81
2024/02/20 04:29:49;;;;;;;;;;;;;;;;;;6298785;28;19916;-81
2024/02/20 04:32:49;;;;;;;;;;;;;;;;;;6313569;28;19908;-82
2024/02/20 04:35:49;;;;;;;;;;;;;;;;;;6323154;28;19934;-81
2024/02/20 04:38:56;;;;;;;;;;;;;;;;;;6303694;28;19994;-81
2024/02/20 04:41:56;;;;;;;;;;;;;;;;;;6320076;28;20257;-81
2024/02/20 04:44:56;;;;;;;;;;;;;;;;;;6321715;28;19915;-82
2024/02/20 04:47:56;;;;;;;;;;;;;;;;;;6299624;28;19912;-82
2024/02/20 04:50:56;;;;;;;;;;;;;;;;;;6321141;28;20034;-82
2024/02/20 04:53:56;;;;;;;;;;;;;;;;;;6309718;28;19922;-81
2024/02/20 04:56:57;;;;;;;;;;;;;;;;;;6322457;28;19908;-81
2024/02/20 04:59:57;;;;;;;;;;;;;;;;;;6320718;28;19908;-81
2024/02/20 05:02:57;;;;;;;;;;;;;;;;;;6309864;28;19912;-82
2024/02/20 05:05:57;;;;;;;;;;;;;;;;;;6314892;28;19912;-82
2024/02/20 05:08:57;;;;;;;;;;;;;;;;;;6299628;28;19913;-81
2024/02/20 05:11:57;;;;;;;;;;;;;;;;;;6321647;28;19908;-81
2024/02/20 05:14:57;;;;;;;;;;;;;;;;;;6316404;28;19916;-82
2024/02/20 05:17:57;;;;;;;;;;;;;;;;;;6322588;28;19994;-82
2024/02/20 05:20:58;;;;;;;;;;;;;;;;;;6322056;28;19911;-82
2024/02/20 05:23:58;;;;;;;;;;;;;;;;;;6305452;28;19908;-81
2024/02/20 05:26:58;;;;;;;;;;;;;;;;;;6312230;28;19999;-81
2024/02/20 05:29:58;;;;;;;;;;;;;;;;;;6323247;28;19912;-82
2024/02/20 05:32:58;;;;;;;;;;;;;;;;;;6327784;28;19927;-82
2024/02/20 05:35:58;;;;;;;;;;;;;;;;;;6327087;28;20326;-82
2024/02/20 05:39:00;;;;;;;;;;;;;;;;;;6307783;28;19908;-82
2024/02/20 05:42:00;;;;;;;;;;;;;;;;;;6318141;28;19904;-77
2024/02/20 05:45:00;;;;;;;;;;;;;;;;;;6318583;28;19915;-77
2024/02/20 05:48:00;;;;;;;;;;;;;;;;;;6324535;28;19912;-77
2024/02/20 05:51:01;;;;;;;;;;;;;;;;;;6322411;28;19908;-78
2024/02/20 05:54:01;;;;;;;;;;;;;;;;;;6315481;28;19953;-77
2024/02/20 05:57:01;;;;;;;;;;;;;;;;;;6327678;28;19954;-77
2024/02/20 06:00:01;;;;;;;;;;;;;;;;;;6326188;28;19911;-77
2024/02/20 06:03:01;;;;;;;;;;;;;;;;;;6325402;28;19908;-77
2024/02/20 06:06:01;;;;;;;;;;;;;;;;;;6320769;28;19912;-78
2024/02/20 06:09:02;;;;;;;;;;;;;;;;;;6320169;28;19962;-78
2024/02/20 06:12:06;;;;;;;;;;;;;;;;;;6326250;28;19998;-78
2024/02/20 06:15:07;;;;;;;;;;;;;;;;;;6324285;28;19922;-77
2024/02/20 06:18:07;;;;;;;;;;;;;;;;;;6325728;28;19912;-77
2024/02/20 06:21:08;;;;;;;;;;;;;;;;;;6307473;28;19911;-77
2024/02/20 06:24:08;;;;;;;;;;;;;;;;;;6300273;28;19993;-77
2024/02/20 06:27:09;;;;;;;;;;;;;;;;;;6302087;28;19912;-78
2024/02/20 06:30:12;;;;;;;;;;;;;;;;;;6300379;28;19916;-77
2024/02/20 06:33:12;;;;;;;;;;;;;;;;;;6306134;28;19926;-77
2024/02/20 06:36:13;;;;;;;;;;;;;;;;;;6309426;28;19908;-78
2024/02/20 06:39:13;;;;;;;;;;;;;;;;;;6302391;28;20424;-77
2024/02/20 06:42:13;;;;;;;;;;;;;;;;;;6320976;28;19905;-78
2024/02/20 06:45:14;;;;;;;;;;;;;;;;;;6299059;28;19916;-77
2024/02/20 06:48:15;;;;;;;;;;;;;;;;;;6313206;28;19950;-78
2024/02/20 06:51:15;;;;;;;;;;;;;;;;;;6315442;28;19914;-81
2024/02/20 06:54:15;;;;;;;;;;;;;;;;;;6324625;28;19990;-81
2024/02/20 06:57:15;;;;;;;;;;;;;;;;;;6315165;28;19908;-83
2024/02/20 07:00:15;;;;;;;;;;;;;;;;;;6323646;28;20002;-84
2024/02/20 07:03:15;;;;;;;;;;;;;;;;;;6326556;28;19908;-84
2024/02/20 07:06:15;;;;;;;;;;;;;;;;;;6325273;28;20322;-83
2024/02/20 07:09:16;;;;;;;;;;;;;;;;;;6303003;28;19920;-82
2024/02/20 07:12:16;;;;;;;;;;;;;;;;;;6307712;28;20357;-82
2024/02/20 07:15:16;;;;;;;;;;;;;;;;;;6310443;28;19913;-82
2024/02/20 07:18:16;;;;;;;;;;;;;;;;;;6301459;28;20001;-82
2024/02/20 07:21:16;;;;;;;;;;;;;;;;;;6305317;28;20328;-82
2024/02/20 07:24:18;;;;;;;;;;;;;;;;;;6311433;28;19976;-82
2024/02/20 07:27:18;;;;;;;;;;;;;;;;;;6322642;28;19916;-82
2024/02/20 07:30:18;;;;;;;;;;;;;;;;;;6325193;28;19919;-83
2024/02/20 07:33:18;;;;;;;;;;;;;;;;;;6306619;28;19913;-83
2024/02/20 07:36:18;;;;;;;;;;;;;;;;;;6313049;28;19919;-82
2024/02/20 07:39:18;;;;;;;;;;;;;;;;;;6319130;28;20253;-83
2024/02/20 07:42:19;;;;;;;;;;;;;;;;;;6326645;28;20273;-83
2024/02/20 07:45:19;;;;;;;;;;;;;;;;;;6306415;28;19908;-83
2024/02/20 07:48:19;;;;;;;;;;;;;;;;;;6325193;28;19912;-83
2024/02/20 07:51:19;;;;;;;;;;;;;;;;;;6323761;28;19986;-83
2024/02/20 07:54:19;;;;;;;;;;;;;;;;;;6323217;28;20010;-83
2024/02/20 07:57:19;;;;;;;;;;;;;;;;;;6324454;28;20272;-83
2024/02/20 08:00:20;;;;;;;;;;;;;;;;;;6323019;28;20280;-83
2024/02/20 08:03:23;;;;;;;;;;;;;;;;;;6311819;28;19982;-84
2024/02/20 08:06:23;;;;;;;;;;;;;;;;;;6298988;28;19916;-83
2024/02/20 08:09:23;;;;;;;;;;;;;;;;;;6307674;28;19919;-83
2024/02/20 08:12:24;;;;;;;;;;;;;;;;;;6328040;28;19954;-83
2024/02/20 08:15:24;;;;;;;;;;;;;;;;;;6334594;28;19908;-83
2024/02/20 08:18:24;;;;;;;;;;;;;;;;;;6308082;28;19965;-83
2024/02/20 08:21:24;;;;;;;;;;;;;;;;;;6313580;28;19949;-83
2024/02/20 08:24:24;;;;;;;;;;;;;;;;;;6305140;28;20398;-82
2024/02/20 08:27:24;;;;;;;;;;;;;;;;;;6315302;28;19911;-84
2024/02/20 08:30:26;;;;;;;;;;;;;;;;;;6303083;28;20289;-83
2024/02/20 08:33:26;;;;;;;;;;;;;;;;;;6320941;28;19911;-84
2024/02/20 08:36:26;;;;;;;;;;;;;;;;;;6321678;28;19908;-83
2024/02/20 08:39:26;;;;;;;;;;;;;;;;;;6312513;28;19926;-83
2024/02/20 08:42:26;;;;;;;;;;;;;;;;;;6318789;28;20360;-84
2024/02/20 08:45:26;;;;;;;;;;;;;;;;;;6319404;28;20031;-84
2024/02/20 08:48:26;;;;;;;;;;;;;;;;;;6305507;28;19908;-84
2024/02/20 08:51:27;;;;;;;;;;;;;;;;;;6307075;28;19911;-84
2024/02/20 08:54:27;;;;;;;;;;;;;;;;;;6317138;28;19911;-84
2024/02/20 08:57:27;;;;;;;;;;;;;;;;;;6304386;28;20384;-84
2024/02/20 09:00:27;;;;;;;;;;;;;;;;;;6306063;28;19935;-84
2024/02/20 09:03:29;;;;;;;;;;;;;;;;;;6318767;28;20334;-84
2024/02/20 09:06:29;;;;;;;;;;;;;;;;;;6303664;28;19928;-84
2024/02/20 09:09:30;;;;;;;;;;;;;;;;;;6319135;28;20430;-84
2024/02/20 09:12:30;;;;;;;;;;;;;;;;;;5966249;28;10000369;-84
2024/02/20 09:15:30;;;;;;;;;;;;;;;;;;6324820;28;19975;-85
2024/02/20 09:18:30;;;;;;;;;;;;;;;;;;6307471;28;19912;-84
2024/02/20 09:21:30;;;;;;;;;;;;;;;;;;6315834;28;20387;-83
2024/02/20 09:24:30;;;;;;;;;;;;;;;;;;6314612;28;19941;-84
2024/02/20 09:27:31;;;;;;;;;;;;;;;;;;6321450;28;19923;-84
2024/02/20 09:30:31;;;;;;;;;;;;;;;;;;6327731;28;20413;-84
2024/02/20 09:33:32;;;;;;;;;;;;;;;;;;6303627;28;20382;-84
2024/02/20 09:36:32;;;;;;;;;;;;;;;;;;6321495;28;20353;-84
2024/02/20 09:39:32;;;;;;;;;;;;;;;;;;6318522;28;20358;-85
2024/02/20 09:42:32;;;;;;;;;;;;;;;;;;6302399;28;19912;-84
2024/02/20 09:45:32;;;;;;;;;;;;;;;;;;6310743;28;19908;-84
2024/02/20 09:48:32;;;;;;;;;;;;;;;;;;6316438;28;19958;-84
2024/02/20 09:51:33;;;;;;;;;;;;;;;;;;6302079;28;19904;-82
2024/02/20 09:54:33;;;;;;;;;;;;;;;;;;6323062;28;19904;-83
2024/02/20 09:57:33;;;;;;;;;;;;;;;;;;6315210;28;19920;-84
2024/02/20 10:00:33;;;;;;;;;;;;;;;;;;6310347;28;19908;-82
2024/02/20 10:03:38;;;;;;;;;;;;;;;;;;6309417;28;19966;-82
2024/02/20 10:06:38;;;;;;;;;;;;;;;;;;6315735;28;19918;-82
2024/02/20 10:09:38;;;;;;;;;;;;;;;;;;6311475;28;19915;-83
2024/02/20 10:12:44;;;;;;;;;;;;;;;;;;6304881;28;20281;-82
2024/02/20 10:15:45;;;;;;;;;;;;;;;;;;6308662;28;19912;-81
2024/02/20 10:18:45;;;;;;;;;;;;;;;;;;6315242;28;19958;-82
2024/02/20 10:21:45;;;;;;;;;;;;;;;;;;6302025;28;19913;-82
2024/02/20 10:24:45;;;;;;;;;;;;;;;;;;6306963;28;19908;-82
2024/02/20 10:27:45;;;;;;;;;;;;;;;;;;6316414;28;19953;-82
2024/02/20 10:30:45;;;;;;;;;;;;;;;;;;6334192;28;19915;-82
2024/02/20 10:33:45;;;;;;;;;;;;;;;;;;6326931;28;19904;-81
2024/02/20 10:36:46;;;;;;;;;;;;;;;;;;6319512;28;20336;-81
2024/02/20 10:39:46;;;;;;;;;;;;;;;;;;6316384;28;20003;-82
2024/02/20 10:42:46;;;;;;;;;;;;;;;;;;6304662;28;20347;-79
2024/02/20 10:45:46;;;;;;;;;;;;;;;;;;6318593;28;19999;-79
2024/02/20 10:48:46;;;;;;;;;;;;;;;;;;6316811;28;20030;-80
2024/02/20 10:51:47;;;;;;;;;;;;;;;;;;6315631;28;19908;-79
2024/02/20 10:54:47;;;;;;;;;;;;;;;;;;6317124;28;20424;-81
2024/02/20 10:57:47;;;;;;;;;;;;;;;;;;6308170;28;20342;-79
2024/02/20 11:00:47;;;;;;;;;;;;;;;;;;6325325;28;20340;-79
2024/02/20 11:03:47;;;;;;;;;;;;;;;;;;6323438;28;19915;-78
2024/02/20 11:06:48;;;;;;;;;;;;;;;;;;6324411;28;19912;-79
2024/02/20 11:09:48;;;;;;;;;;;;;;;;;;6323337;28;19965;-84
2024/02/20 11:12:50;;;;;;;;;;;;;;;;;;6312217;28;20042;-82
2024/02/20 11:15:51;;;;;;;;;;;;;;;;;;6292171;28;20407;-85
2024/02/20 11:18:54;;;;;;;;;;;;;;;;;;6301586;28;19904;-84
2024/02/20 11:21:54;;;;;;;;;;;;;;;;;;6292473;28;19908;-78
2024/02/20 11:24:54;;;;;;;;;;;;;;;;;;6285178;28;20071;-78
2024/02/20 11:27:54;;;;;;;;;;;;;;;;;;6297382;28;20269;-79
2024/02/20 11:30:55;;;;;;;;;;;;;;;;;;6289389;28;19912;-75
2024/02/20 11:33:55;;;;;;;;;;;;;;;;;;6300503;28;19962;-76
2024/02/20 11:36:55;;;;;;;;;;;;;;;;;;6277055;28;20015;-76
2024/02/20 11:39:57;;;;;;;;;;;;;;;;;;6278269;28;19954;-76
2024/02/20 11:42:57;;;;;;;;;;;;;;;;;;6299445;28;19913;-76
2024/02/20 11:45:57;;;;;;;;;;;;;;;;;;6297280;28;20327;-75
2024/02/20 11:48:59;;;;;;;;;;;;;;;;;;6299411;28;19921;-76
2024/02/20 11:51:59;;;;;;;;;;;;;;;;;;6297363;28;19911;-76
2024/02/20 11:54:59;;;;;;;;;;;;;;;;;;6299535;28;19904;-75
2024/02/20 11:57:59;;;;;;;;;;;;;;;;;;6298594;28;19909;-75
2024/02/20 12:01:05;;;;;;;;;;;;;;;;;;6297943;28;19909;-76
2024/02/20 12:04:06;;;;;;;;;;;;;;;;;;6297382;28;20269;-76
2024/02/20 12:07:06;;;;;;;;;;;;;;;;;;6299318;28;19909;-76
2024/02/20 12:10:06;;;;;;;;;;;;;;;;;;6297018;28;19914;-76
2024/02/20 12:13:07;;;;;;;;;;;;;;;;;;6304919;28;20326;-76
2024/02/20 12:16:07;;;;;;;;;;;;;;;;;;6284618;28;19947;-76
2024/02/20 12:19:07;;;;;;;;;;;;;;;;;;6298497;28;20007;-76
2024/02/20 12:22:08;;;;;;;;;;;;;;;;;;6298592;28;20271;-75
2024/02/20 12:25:08;;;;;;;;;;;;;;;;;;6299316;28;19999;-76
2024/02/20 12:28:10;;;;;;;;;;;;;;;;;;6296637;28;20281;-75
2024/02/20 12:31:10;;;;;;;;;;;;;;;;;;6292523;28;19957;-76
2024/02/20 12:34:11;;;;;;;;;;;;;;;;;;6296000;28;20356;-76
2024/02/20 12:37:11;;;;;;;;;;;;;;;;;;6285134;28;19943;-76
2024/02/20 12:40:15;;;;;;;;;;;;;;;;;;6296250;28;20225;-75
2024/02/20 12:43:15;;;;;;;;;;;;;;;;;;6297224;28;20366;-76
2024/02/20 12:46:15;;;;;;;;;;;;;;;;;;6295431;28;19917;-76
2024/02/20 12:49:16;;;;;;;;;;;;;;;;;;6297698;28;20341;-76
2024/02/20 12:52:16;;;;;;;;;;;;;;;;;;6297292;28;20328;-78
2024/02/20 12:55:16;;;;;;;;;;;;;;;;;;6298487;28;19909;-79
2024/02/20 12:58:16;;;;;;;;;;;;;;;;;;6295191;28;20333;-79
2024/02/20 13:01:17;;;;;;;;;;;;;;;;;;6297418;28;19966;-79
2024/02/20 13:04:17;;;;;;;;;;;;;;;;;;6298375;28;20013;-79
2024/02/20 13:07:17;;;;;;;;;;;;;;;;;;6297957;28;19912;-79
2024/02/20 13:10:17;;;;;;;;;;;;;;;;;;6293038;28;19913;-79
2024/02/20 13:13:18;;;;;;;;;;;;;;;;;;6303048;28;20437;-79
2024/02/20 13:16:18;;;;;;;;;;;;;;;;;;6296983;28;19915;-79
2024/02/20 13:19:18;;;;;;;;;;;;;;;;;;6297307;28;19965;-79
2024/02/20 13:22:18;;;;;;;;;;;;;;;;;;6296432;28;19989;-79
2024/02/20 13:25:18;;;;;;;;;;;;;;;;;;6300459;28;20014;-79
2024/02/20 13:28:22;;;;;;;;;;;;;;;;;;6320690;28;19908;-79
2024/02/20 13:31:22;;;;;;;;;;;;;;;;;;6322215;28;19939;-80
2024/02/20 13:34:22;;;;;;;;;;;;;;;;;;6311085;28;19915;-79
2024/02/20 13:37:27;;;;;;;;;;;;;;;;;;6318718;28;19912;-79
2024/02/20 13:40:27;;;;;;;;;;;;;;;;;;6321716;28;19994;-79
2024/02/20 13:43:27;;;;;;;;;;;;;;;;;;6320090;28;20261;-79
2024/02/20 13:46:27;;;;;;;;;;;;;;;;;;6312248;28;19908;-79
2024/02/20 13:49:28;;;;;;;;;;;;;;;;;;6300500;28;20494;-79
2024/02/20 13:52:28;;;;;;;;;;;;;;;;;;6303956;28;19911;-79
2024/02/20 13:55:28;;;;;;;;;;;;;;;;;;6304540;28;19958;-79
2024/02/20 13:58:29;;;;;;;;;;;;;;;;;;6303325;28;19927;-78
2024/02/20 14:01:29;;;;;;;;;;;;;;;;;;6326375;28;19915;-76
2024/02/20 14:04:29;;;;;;;;;;;;;;;;;;6327875;28;19949;-76
2024/02/20 14:07:30;;;;;;;;;;;;;;;;;;6327640;28;19953;-76
2024/02/20 14:10:30;;;;;;;;;;;;;;;;;;6325678;28;19939;-76
2024/02/20 14:13:30;;;;;;;;;;;;;;;;;;6334953;28;19993;-76
2024/02/20 14:16:31;;;;;;;;;;;;;;;;;;6326977;28;20356;-76
2024/02/20 14:19:31;;;;;;;;;;;;;;;;;;6318065;28;19998;-76
2024/02/20 14:22:31;;;;;;;;;;;;;;;;;;6305707;28;20253;-76
2024/02/20 14:25:32;;;;;;;;;;;;;;;;;;6314270;28;19908;-76
2024/02/20 14:28:32;;;;;;;;;;;;;;;;;;6324781;28;19912;-76
2024/02/20 14:31:32;;;;;;;;;;;;;;;;;;6301893;28;19908;-76
2024/02/20 14:34:33;;;;;;;;;;;;;;;;;;6311220;28;19915;-76
2024/02/20 14:37:34;;;;;;;;;;;;;;;;;;6326417;28;19904;-76
2024/02/20 14:40:34;;;;;;;;;;;;;;;;;;6324790;28;19908;-76
2024/02/20 14:43:34;;;;;;;;;;;;;;;;;;6325807;28;20265;-76
2024/02/20 14:46:34;;;;;;;;;;;;;;;;;;6324605;28;20292;-76
2024/02/20 14:49:34;;;;;;;;;;;;;;;;;;6325796;28;19908;-76
2024/02/20 14:52:35;;;;;;;;;;;;;;;;;;6325572;28;19912;-76
2024/02/20 14:55:35;;;;;;;;;;;;;;;;;;6325614;28;19964;-76
2024/02/20 14:58:35;;;;;;;;;;;;;;;;;;6326707;28;20242;-75
2024/02/20 15:01:35;;;;;;;;;;;;;;;;;;6324420;28;20356;-76
2024/02/20 15:04:37;;;;;;;;;;;;;;;;;;6326472;28;19908;-76
2024/02/20 15:07:37;;;;;;;;;;;;;;;;;;6326349;28;19959;-76
2024/02/20 15:10:37;;;;;;;;;;;;;;;;;;6302715;28;19919;-75
2024/02/20 15:13:37;;;;;;;;;;;;;;;;;;6312092;28;19916;-76
2024/02/20 15:16:37;;;;;;;;;;;;;;;;;;6324384;28;19908;-76
2024/02/20 15:19:38;;;;;;;;;;;;;;;;;;6329775;28;19908;-76
2024/02/20 15:22:38;;;;;;;;;;;;;;;;;;6308327;28;19911;-76
2024/02/20 15:25:38;;;;;;;;;;;;;;;;;;6306957;28;19908;-76
2024/02/20 15:28:38;;;;;;;;;;;;;;;;;;6323444;28;19930;-76
2024/02/20 15:31:38;;;;;;;;;;;;;;;;;;6324426;28;19965;-76
2024/02/20 15:34:38;;;;;;;;;;;;;;;;;;6322559;28;19940;-75
2024/02/20 15:37:39;;;;;;;;;;;;;;;;;;6325010;28;20011;-76
2024/02/20 15:40:41;;;;;;;;;;;;;;;;;;6322363;28;20003;-76
2024/02/20 15:43:41;;;;;;;;;;;;;;;;;;6322432;28;19957;-75
2024/02/20 15:46:43;;;;;;;;;;;;;;;;;;6324437;28;19912;-75
2024/02/20 15:49:44;;;;;;;;;;;;;;;;;;6324911;28;19912;-75
2024/02/20 15:52:44;;;;;;;;;;;;;;;;;;6324884;28;20004;-75
2024/02/20 15:55:44;;;;;;;;;;;;;;;;;;6323668;28;19904;-75
2024/02/20 15:58:44;;;;;;;;;;;;;;;;;;6321667;28;19908;-75
2024/02/20 16:01:44;;;;;;;;;;;;;;;;;;6323949;28;19943;-75
2024/02/20 16:04:48;;;;;;;;;;;;;;;;;;6323888;28;20276;-76
2024/02/20 16:07:48;;;;;;;;;;;;;;;;;;6324525;28;19912;-75
2024/02/20 16:10:49;;;;;;;;;;;;;;;;;;6323571;28;20291;-76
2024/02/20 16:13:49;;;;;;;;;;;;;;;;;;6330303;28;19915;-75
2024/02/20 16:16:49;;;;;;;;;;;;;;;;;;6322486;28;20114;-75
2024/02/20 16:19:49;;;;;;;;;;;;;;;;;;6323159;28;20261;-75
2024/02/20 16:22:50;;;;;;;;;;;;;;;;;;6324512;28;19908;-78
2024/02/20 16:25:50;;;;;;;;;;;;;;;;;;6306029;28;19908;-79
2024/02/20 16:28:50;;;;;;;;;;;;;;;;;;6298159;28;19913;-78
2024/02/20 16:31:51;;;;;;;;;;;;;;;;;;6310142;28;19909;-79
2024/02/20 16:34:51;;;;;;;;;;;;;;;;;;6319802;28;20245;-78
2024/02/20 16:37:52;;;;;;;;;;;;;;;;;;6323632;28;19904;-79
2024/02/20 16:40:52;;;;;;;;;;;;;;;;;;6323824;28;19951;-79
2024/02/20 16:43:52;;;;;;;;;;;;;;;;;;6311788;28;19947;-79
2024/02/20 16:46:54;;;;;;;;;;;;;;;;;;6295914;28;20023;-78
2024/02/20 16:49:55;;;;;;;;;;;;;;;;;;6321709;28;19908;-79
2024/02/20 16:52:55;;;;;;;;;;;;;;;;;;6323670;28;19911;-79
2024/02/20 16:55:56;;;;;;;;;;;;;;;;;;6323667;28;19930;-79
2024/02/20 16:58:56;;;;;;;;;;;;;;;;;;6321192;28;20250;-78
2024/02/20 17:01:57;;;;;;;;;;;;;;;;;;6323246;28;19910;-78
2024/02/20 17:04:57;;;;;;;;;;;;;;;;;;6313009;28;19930;-78
2024/02/20 17:07:57;;;;;;;;;;;;;;;;;;6321454;28;20288;-79
2024/02/20 17:10:58;;;;;;;;;;;;;;;;;;6312759;28;19965;-79
2024/02/20 17:13:58;;;;;;;;;;;;;;;;;;6310530;28;19916;-79
2024/02/20 17:16:58;;;;;;;;;;;;;;;;;;6319980;28;19956;-78
2024/02/20 17:19:58;;;;;;;;;;;;;;;;;;6302005;28;19958;-78
2024/02/20 17:22:58;;;;;;;;;;;;;;;;;;6338028;28;19957;-78
2024/02/20 17:25:58;;;;;;;;;;;;;;;;;;6320887;28;19947;-78
2024/02/20 17:28:58;;;;;;;;;;;;;;;;;;6322017;28;19908;-78
2024/02/20 17:31:58;;;;;;;;;;;;;;;;;;6322845;28;19973;-78
2024/02/20 17:34:59;;;;;;;;;;;;;;;;;;6319635;28;20016;-78
2024/02/20 17:37:59;;;;;;;;;;;;;;;;;;6299577;28;19915;-81
2024/02/20 17:40:59;;;;;;;;;;;;;;;;;;6304134;28;19911;-81
2024/02/20 17:43:59;;;;;;;;;;;;;;;;;;6319551;28;19919;-80
2024/02/20 17:47:02;;;;;;;;;;;;;;;;;;6321297;28;19919;-81
2024/02/20 17:50:02;;;;;;;;;;;;;;;;;;6322148;28;20364;-81
2024/02/20 17:53:02;;;;;;;;;;;;;;;;;;6311065;28;19920;-80
2024/02/20 17:56:02;;;;;;;;;;;;;;;;;;6317139;28;19946;-81
2024/02/20 17:59:03;;;;;;;;;;;;;;;;;;6317375;28;20003;-80
2024/02/20 18:02:03;;;;;;;;;;;;;;;;;;6304092;28;19915;-80
2024/02/20 18:05:05;;;;;;;;;;;;;;;;;;6312126;28;20344;-81
2024/02/20 18:08:05;;;;;;;;;;;;;;;;;;6304033;28;19913;-81
2024/02/20 18:11:05;;;;;;;;;;;;;;;;;;6302219;28;20361;-79
2024/02/20 18:14:05;;;;;;;;;;;;;;;;;;6332057;28;20035;-78
2024/02/20 18:17:06;;;;;;;;;;;;;;;;;;6320085;28;19912;-77
2024/02/20 18:20:06;;;;;;;;;;;;;;;;;;6312802;28;19927;-78
2024/02/20 18:23:06;;;;;;;;;;;;;;;;;;6309115;28;19905;-79
2024/02/20 18:26:07;;;;;;;;;;;;;;;;;;6298794;28;19919;-79
2024/02/20 18:29:08;;;;;;;;;;;;;;;;;;6297016;28;20003;-80
2024/02/20 18:32:08;;;;;;;;;;;;;;;;;;6302287;28;20335;-80
2024/02/20 18:35:08;;;;;;;;;;;;;;;;;;6305446;28;19909;-80
2024/02/20 18:38:10;;;;;;;;;;;;;;;;;;6307412;28;19912;-80
2024/02/20 18:41:12;;;;;;;;;;;;;;;;;;6315879;28;19929;-80
2024/02/20 18:44:12;;;;;;;;;;;;;;;;;;6317396;28;19965;-80
2024/02/20 18:47:12;;;;;;;;;;;;;;;;;;6300006;28;19916;-79
2024/02/20 18:50:12;;;;;;;;;;;;;;;;;;6300435;28;19913;-79
2024/02/20 18:53:13;;;;;;;;;;;;;;;;;;6306765;28;19996;-80
2024/02/20 18:56:14;;;;;;;;;;;;;;;;;;6318392;28;20408;-79
2024/02/20 18:59:14;;;;;;;;;;;;;;;;;;6314271;28;19963;-79
2024/02/20 19:02:14;;;;;;;;;;;;;;;;;;6320083;28;20008;-79
2024/02/20 19:05:14;;;;;;;;;;;;;;;;;;6307639;28;19911;-80
2024/02/20 19:08:14;;;;;;;;;;;;;;;;;;6323005;28;19923;-79
2024/02/20 19:11:14;;;;;;;;;;;;;;;;;;6321597;28;19908;-79
2024/02/20 19:14:15;;;;;;;;;;;;;;;;;;6302929;28;19955;-80
2024/02/20 19:17:16;;;;;;;;;;;;;;;;;;6303388;28;20018;-80
2024/02/20 19:20:18;;;;;;;;;;;;;;;;;;6317065;28;19919;-79
2024/02/20 19:23:18;;;;;;;;;;;;;;;;;;6316662;28;19995;-79
2024/02/20 19:26:18;;;;;;;;;;;;;;;;;;6314809;28;20349;-79
2024/02/20 19:29:18;;;;;;;;;;;;;;;;;;6323175;28;20368;-80
2024/02/20 19:32:19;;;;;;;;;;;;;;;;;;6308808;28;20402;-79
2024/02/20 19:35:19;;;;;;;;;;;;;;;;;;6300377;28;20110;-79
2024/02/20 19:38:21;;;;;;;;;;;;;;;;;;6306444;28;20421;-79
2024/02/20 19:41:24;;;;;;;;;;;;;;;;;;6313398;28;19916;-79
2024/02/20 19:44:24;;;;;;;;;;;;;;;;;;6321707;28;19969;-79
2024/02/20 19:47:24;;;;;;;;;;;;;;;;;;6321158;28;20650;-79
2024/02/20 19:50:25;;;;;;;;;;;;;;;;;;6311949;28;19912;-79
2024/02/20 19:53:25;;;;;;;;;;;;;;;;;;6304852;28;20253;-79
2024/02/20 19:56:25;;;;;;;;;;;;;;;;;;6313960;28;20287;-79
2024/02/20 19:59:25;;;;;;;;;;;;;;;;;;6310191;28;20432;-79
2024/02/20 20:02:25;;;;;;;;;;;;;;;;;;6303902;28;20472;-79
2024/02/20 20:05:26;;;;;;;;;;;;;;;;;;6294953;28;20430;-80
2024/02/20 20:08:26;;;;;;;;;;;;;;;;;;6300978;28;19908;-80
2024/02/20 20:11:26;;;;;;;;;;;;;;;;;;6313642;28;19920;-78
2024/02/20 20:14:26;;;;;;;;;;;;;;;;;;6327070;28;19920;-79
2024/02/20 20:17:26;;;;;;;;;;;;;;;;;;6320888;28;19907;-79
2024/02/20 20:20:26;;;;;;;;;;;;;;;;;;6307072;28;19936;-80
2024/02/20 20:23:28;;;;;;;;;;;;;;;;;;6299515;28;20010;-80
2024/02/20 20:26:28;;;;;;;;;;;;;;;;;;6303394;28;20273;-79
2024/02/20 20:29:28;;;;;;;;;;;;;;;;;;6319608;28;19912;-79
2024/02/20 20:32:29;;;;;;;;;;;;;;;;;;6310944;28;19912;-79